Time;durP1;ratioP1;P1;durP2;ratioP2;P2;SDS_P1;SDS_P2;PMS_P1;PMS_P2;Temp;Humidity;BMP_temperature;BMP_pressure;BME280_temperature;BME280_humidity;BME280_pressure;Samples;Min_cycle;Max_cycle;Signal;HPM_P1;HPM_P2
2023/08/30 00:01:48;0.00;0.00;0.62;0.00;0.00;0.62;2.30;1.80;;;28.80;26.20;;;;;;2265106;61;20411;-53
2023/08/30 00:04:35;0.00;0.00;0.62;0.00;0.00;0.62;3.80;2.00;;;28.80;26.20;;;;;;2264484;61;20388;-52
2023/08/30 00:07:19;0.00;0.00;0.62;0.00;0.00;0.62;2.67;1.67;;;28.80;26.20;;;;;;2265089;61;20414;-55
2023/08/30 00:10:05;0.00;0.00;0.62;0.00;0.00;0.62;2.43;1.87;;;28.80;26.20;;;;;;2264891;61;20444;-54
2023/08/30 00:12:50;0.00;0.00;0.62;0.00;0.00;0.62;2.73;1.63;;;28.80;26.20;;;;;;2264337;61;20368;-55
2023/08/30 00:15:34;0.00;0.00;0.62;0.00;0.00;0.62;2.40;1.60;;;28.80;26.20;;;;;;2264493;61;20376;-52
2023/08/30 00:18:19;0.00;0.00;0.62;0.00;0.00;0.62;2.93;1.80;;;28.80;26.30;;;;;;2264869;61;20434;-53
2023/08/30 00:21:06;0.00;0.00;0.62;0.00;0.00;0.62;2.20;1.50;;;28.80;26.20;;;;;;2264672;61;20360;-51
2023/08/30 00:23:51;0.00;0.00;0.62;0.00;0.00;0.62;3.00;1.87;;;28.80;26.20;;;;;;2264540;61;20827;-53
2023/08/30 00:26:36;0.00;0.00;0.62;0.00;0.00;0.62;2.50;1.67;;;28.80;26.80;;;;;;2264938;61;20371;-51
2023/08/30 00:29:23;0.00;0.00;0.62;0.00;0.00;0.62;4.23;2.03;;;28.80;26.20;;;;;;2264376;61;20394;-56
2023/08/30 00:32:08;0.00;0.00;0.62;0.00;0.00;0.62;2.10;1.50;;;28.80;26.30;;;;;;2264947;61;20429;-54
2023/08/30 00:34:52;0.00;0.00;0.62;0.00;0.00;0.62;2.30;1.80;;;28.80;26.30;;;;;;2264019;61;20379;-49
2023/08/30 00:37:38;0.00;0.00;0.62;0.00;0.00;0.62;2.63;1.90;;;28.70;26.20;;;;;;2264946;61;20356;-51
2023/08/30 00:40:24;0.00;0.00;0.62;0.00;0.00;0.62;1.87;1.40;;;28.80;26.30;;;;;;2264711;61;20368;-52
2023/08/30 00:43:09;0.00;0.00;0.62;0.00;0.00;0.62;3.30;2.00;;;28.70;26.20;;;;;;2264370;61;20418;-51
2023/08/30 00:45:56;0.00;0.00;0.62;0.00;0.00;0.62;2.23;1.47;;;28.70;26.20;;;;;;2264805;61;20454;-52
2023/08/30 00:48:41;0.00;0.00;0.62;0.00;0.00;0.62;3.00;1.80;;;28.80;26.30;;;;;;2264838;61;20360;-55
2023/08/30 00:51:27;0.00;0.00;0.62;0.00;0.00;0.62;3.33;1.80;;;28.70;26.20;;;;;;2264231;61;20366;-54
2023/08/30 00:54:15;0.00;0.00;0.62;0.00;0.00;0.62;2.40;1.70;;;28.70;26.20;;;;;;2264411;61;20931;-53
2023/08/30 00:57:01;0.00;0.00;0.62;0.00;0.00;0.62;2.13;1.50;;;28.70;26.20;;;;;;2264247;61;20372;-53
2023/08/30 00:59:46;0.00;0.00;0.62;0.00;0.00;0.62;2.50;1.90;;;28.70;26.80;;;;;;2264347;61;20798;-49
2023/08/30 01:02:33;0.00;0.00;0.62;0.00;0.00;0.62;2.73;1.63;;;28.70;26.30;;;;;;2264787;61;20411;-52
2023/08/30 01:05:19;0.00;0.00;0.62;0.00;0.00;0.62;2.30;2.00;;;28.70;26.30;;;;;;2263628;61;20396;-55
2023/08/30 01:08:04;0.00;0.00;0.62;0.00;0.00;0.62;2.07;1.60;;;28.70;26.20;;;;;;2264631;61;20406;-55
2023/08/30 01:11:02;0.00;0.00;0.62;0.00;0.00;0.62;2.40;1.47;;;28.70;26.20;;;;;;2264944;61;20407;-51
2023/08/30 01:13:56;0.00;0.00;0.62;0.00;0.00;0.62;2.53;1.80;;;28.70;26.20;;;;;;2263921;61;20384;-51
2023/08/30 01:16:41;0.00;0.00;0.62;0.00;0.00;0.62;2.30;1.50;;;28.70;26.30;;;;;;2264466;61;20406;-50
2023/08/30 01:19:39;0.00;0.00;0.62;0.00;0.00;0.62;3.30;1.40;;;28.70;26.20;;;;;;2264298;61;20458;-51
2023/08/30 01:22:39;0.00;0.00;0.62;0.00;0.00;0.62;2.23;1.33;;;28.70;26.30;;;;;;2264929;61;20368;-49
2023/08/30 01:25:37;0.00;0.00;0.62;0.00;0.00;0.62;1.67;1.30;;;28.70;26.20;;;;;;2264181;61;20482;-49
2023/08/30 01:28:28;0.00;0.00;0.62;0.00;0.00;0.62;4.13;2.10;;;28.70;26.20;;;;;;2264530;61;20356;-51
2023/08/30 01:31:14;0.00;0.00;0.62;0.00;0.00;0.62;1.70;1.20;;;28.70;26.20;;;;;;2264944;61;20373;-55
2023/08/30 01:34:01;0.00;0.00;0.62;0.00;0.00;0.62;2.10;1.40;;;28.70;26.20;;;;;;2264257;61;20395;-51
2023/08/30 01:36:48;0.00;0.00;0.62;0.00;0.00;0.62;2.57;1.53;;;28.70;26.20;;;;;;2320255;53;20396;-52
2023/08/30 01:39:34;0.00;0.00;0.62;0.00;0.00;0.62;2.00;1.27;;;28.70;26.20;;;;;;2260953;61;20361;-54
2023/08/30 01:42:22;0.00;0.00;0.62;0.00;0.00;0.62;3.47;1.57;;;28.70;26.20;;;;;;2260554;61;20802;-52
2023/08/30 01:45:13;0.00;0.00;0.62;0.00;0.00;0.62;1.83;1.33;;;28.70;26.20;;;;;;2259722;61;20839;-47
2023/08/30 01:47:58;0.00;0.00;0.62;0.00;0.00;0.62;2.50;1.60;;;28.70;26.20;;;;;;2258234;61;20404;-55
2023/08/30 01:50:44;0.00;0.00;0.62;0.00;0.00;0.62;3.67;1.90;;;28.70;26.20;;;;;;2264491;61;20924;-50
2023/08/30 01:53:30;0.00;0.00;0.62;0.00;0.00;0.62;2.07;1.50;;;28.70;26.20;;;;;;2263744;61;20422;-51
2023/08/30 01:56:15;0.00;0.00;0.62;0.00;0.00;0.62;3.27;1.73;;;28.60;26.10;;;;;;2264289;61;20403;-54
2023/08/30 01:59:00;0.00;0.00;0.62;0.00;0.00;0.62;2.53;1.40;;;28.70;26.20;;;;;;2255360;61;20791;-56
2023/08/30 02:01:45;0.00;0.00;0.62;0.00;0.00;0.62;2.10;1.40;;;28.70;26.20;;;;;;2264133;61;20360;-49
2023/08/30 02:04:33;0.00;0.00;0.62;0.00;0.00;0.62;2.40;1.20;;;28.60;26.10;;;;;;2264026;61;20426;-55
2023/08/30 02:07:24;0.00;0.00;0.62;0.00;0.00;0.62;2.30;1.80;;;28.70;26.10;;;;;;2264648;61;20411;-55
2023/08/30 02:10:15;0.00;0.00;0.62;0.00;0.00;0.62;1.60;1.40;;;28.60;26.10;;;;;;2264776;61;20890;-53
2023/08/30 02:13:01;0.00;0.00;0.62;0.00;0.00;0.62;1.80;1.30;;;28.60;26.10;;;;;;2264492;61;20408;-50
2023/08/30 02:15:47;0.00;0.00;0.62;0.00;0.00;0.62;1.67;1.23;;;28.60;26.00;;;;;;2264278;61;20421;-51
2023/08/30 02:18:34;0.00;0.00;0.62;0.00;0.00;0.62;2.10;1.60;;;28.60;26.10;;;;;;2264000;61;20372;-51
2023/08/30 02:21:19;0.00;0.00;0.62;0.00;0.00;0.62;1.70;1.30;;;28.60;26.10;;;;;;2264231;61;20379;-58
2023/08/30 02:24:04;0.00;0.00;0.62;0.00;0.00;0.62;2.10;1.37;;;28.60;26.00;;;;;;2263821;61;20388;-53
2023/08/30 02:26:49;0.00;0.00;0.62;0.00;0.00;0.62;1.97;1.57;;;28.60;26.00;;;;;;2264389;61;20523;-55
2023/08/30 02:29:34;0.00;0.00;0.62;0.00;0.00;0.62;1.87;1.40;;;28.60;26.10;;;;;;2264064;61;20452;-60
2023/08/30 02:32:20;0.00;0.00;0.62;0.00;0.00;0.62;1.93;1.30;;;28.60;26.10;;;;;;2264047;61;20464;-52
2023/08/30 02:35:08;0.00;0.00;0.62;0.00;0.00;0.62;2.10;1.50;;;28.60;26.00;;;;;;2263793;61;20830;-51
2023/08/30 02:37:53;0.00;0.00;0.62;0.00;0.00;0.62;2.00;1.47;;;28.60;26.00;;;;;;2264679;61;20959;-53
2023/08/30 02:40:40;0.00;0.00;0.62;0.00;0.00;0.62;3.30;1.40;;;28.60;26.00;;;;;;2264279;61;20406;-52
2023/08/30 02:43:26;0.00;0.00;0.62;0.00;0.00;0.62;2.23;1.53;;;28.60;26.00;;;;;;2264144;61;20414;-50
2023/08/30 02:46:10;0.00;0.00;0.62;0.00;0.00;0.62;2.27;1.57;;;28.60;26.00;;;;;;2264282;61;20395;-54
2023/08/30 02:48:56;0.00;0.00;0.62;0.00;0.00;0.62;2.03;1.50;;;28.60;26.10;;;;;;2264127;61;20426;-49
2023/08/30 02:51:43;0.00;0.00;0.62;0.00;0.00;0.62;2.13;1.50;;;28.60;26.00;;;;;;2263679;61;20336;-49
2023/08/30 02:54:27;0.00;0.00;0.62;0.00;0.00;0.62;1.83;1.40;;;28.50;26.00;;;;;;2263449;61;20441;-51
2023/08/30 02:57:12;0.00;0.00;0.62;0.00;0.00;0.62;2.37;1.50;;;28.50;26.00;;;;;;2263743;61;20364;-49
2023/08/30 02:59:58;0.00;0.00;0.62;0.00;0.00;0.62;3.70;1.43;;;28.50;26.00;;;;;;2263522;61;20410;-49
2023/08/30 03:02:42;0.00;0.00;0.62;0.00;0.00;0.62;1.70;1.20;;;28.50;26.00;;;;;;2264036;61;20364;-51
2023/08/30 03:05:27;0.00;0.00;0.62;0.00;0.00;0.62;2.33;1.60;;;28.50;26.00;;;;;;2264411;61;20390;-50
2023/08/30 03:08:13;0.00;0.00;0.62;0.00;0.00;0.62;2.30;1.30;;;28.50;26.00;;;;;;2264570;61;20418;-55
2023/08/30 03:11:08;0.00;0.00;0.62;0.00;0.00;0.62;1.63;1.13;;;28.50;26.00;;;;;;2264668;61;20386;-54
2023/08/30 03:13:54;0.00;0.00;0.62;0.00;0.00;0.62;1.90;1.23;;;28.50;26.00;;;;;;2264693;61;20827;-50
2023/08/30 03:16:39;0.00;0.00;0.62;0.00;0.00;0.62;2.13;1.60;;;28.50;26.00;;;;;;2264644;61;20859;-51
2023/08/30 03:19:24;0.00;0.00;0.62;0.00;0.00;0.62;2.37;1.53;;;28.50;26.00;;;;;;2264488;61;20814;-50
2023/08/30 03:22:08;0.00;0.00;0.62;0.00;0.00;0.62;2.00;1.57;;;28.50;26.00;;;;;;2265182;61;20372;-49
2023/08/30 03:24:54;0.00;0.00;0.62;0.00;0.00;0.62;1.70;1.50;;;28.40;26.00;;;;;;2263850;61;20395;-49
2023/08/30 03:27:39;0.00;0.00;0.62;0.00;0.00;0.62;2.17;1.50;;;28.40;26.00;;;;;;2265044;61;20367;-53
2023/08/30 03:30:23;0.00;0.00;0.62;0.00;0.00;0.62;1.90;1.20;;;28.40;26.00;;;;;;2264560;61;20359;-51
2023/08/30 03:33:09;0.00;0.00;0.62;0.00;0.00;0.62;1.90;1.60;;;28.40;26.00;;;;;;2264518;61;20379;-53
2023/08/30 03:35:53;0.00;0.00;0.62;0.00;0.00;0.62;2.10;1.50;;;28.40;26.00;;;;;;2264924;61;20360;-52
2023/08/30 03:38:39;0.00;0.00;0.62;0.00;0.00;0.62;2.20;1.33;;;28.40;26.00;;;;;;2264656;61;20418;-51
2023/08/30 03:41:25;0.00;0.00;0.62;0.00;0.00;0.62;1.70;1.30;;;28.40;26.00;;;;;;2264811;61;20367;-50
2023/08/30 03:44:11;0.00;0.00;0.62;0.00;0.00;0.62;1.70;1.30;;;28.40;26.00;;;;;;2264238;61;20395;-54
2023/08/30 03:46:56;0.00;0.00;0.62;0.00;0.00;0.62;1.90;1.23;;;28.40;26.00;;;;;;2264860;61;20419;-49
2023/08/30 03:49:41;0.00;0.00;0.62;0.00;0.00;0.62;2.43;1.60;;;28.40;26.00;;;;;;2264663;61;20474;-54
2023/08/30 03:52:26;0.00;0.00;0.62;0.00;0.00;0.62;1.70;1.23;;;28.40;26.00;;;;;;2265073;61;20868;-54
2023/08/30 03:55:10;0.00;0.00;0.62;0.00;0.00;0.62;2.33;1.50;;;28.40;26.50;;;;;;2264117;61;20375;-52
2023/08/30 03:57:56;0.00;0.00;0.62;0.00;0.00;0.62;2.47;1.40;;;28.30;25.90;;;;;;2264204;61;20367;-53
2023/08/30 04:00:41;0.00;0.00;0.62;0.00;0.00;0.62;1.90;1.30;;;28.30;26.00;;;;;;2265029;61;20368;-50
2023/08/30 04:03:25;0.00;0.00;0.62;0.00;0.00;0.62;2.03;1.73;;;28.30;25.90;;;;;;2264351;61;20469;-50
2023/08/30 04:06:10;0.00;0.00;0.62;0.00;0.00;0.62;3.80;1.43;;;28.30;25.90;;;;;;2264508;61;20900;-48
2023/08/30 04:08:54;0.00;0.00;0.62;0.00;0.00;0.62;2.40;1.30;;;28.30;26.00;;;;;;2265237;61;20391;-52
2023/08/30 04:11:39;0.00;0.00;0.62;0.00;0.00;0.62;1.80;1.50;;;28.30;25.90;;;;;;2265003;61;20400;-53
2023/08/30 04:14:25;0.00;0.00;0.62;0.00;0.00;0.62;1.80;1.20;;;28.30;25.90;;;;;;2264474;61;20391;-52
2023/08/30 04:17:09;0.00;0.00;0.62;0.00;0.00;0.62;1.80;1.20;;;28.30;25.90;;;;;;2264404;61;20372;-52
2023/08/30 04:19:54;0.00;0.00;0.62;0.00;0.00;0.62;1.97;1.50;;;28.30;25.90;;;;;;2264511;61;20864;-53
2023/08/30 04:22:39;0.00;0.00;0.62;0.00;0.00;0.62;1.70;1.20;;;28.30;25.90;;;;;;2264494;61;20376;-52
2023/08/30 04:25:24;0.00;0.00;0.62;0.00;0.00;0.62;1.70;1.20;;;28.30;25.90;;;;;;2263971;61;20484;-55
2023/08/30 04:28:08;0.00;0.00;0.62;0.00;0.00;0.62;1.70;1.20;;;28.30;25.90;;;;;;2264500;61;20371;-53
2023/08/30 04:30:56;0.00;0.00;0.62;0.00;0.00;0.62;2.10;1.30;;;28.30;25.90;;;;;;2264458;61;20418;-53
2023/08/30 04:33:41;0.00;0.00;0.62;0.00;0.00;0.62;2.33;1.33;;;28.30;25.90;;;;;;2263968;61;20380;-55
2023/08/30 04:36:26;0.00;0.00;0.62;0.00;0.00;0.62;1.70;1.20;;;28.30;25.90;;;;;;2264912;61;20365;-55
2023/08/30 04:39:10;0.00;0.00;0.62;0.00;0.00;0.62;2.20;1.50;;;28.30;26.00;;;;;;2264288;61;20388;-49
2023/08/30 04:41:56;0.00;0.00;0.62;0.00;0.00;0.62;2.27;1.33;;;28.30;26.00;;;;;;2264231;61;20411;-52
2023/08/30 04:44:41;0.00;0.00;0.62;0.00;0.00;0.62;1.60;1.20;;;28.30;26.00;;;;;;2263929;61;20852;-50
2023/08/30 04:47:28;0.00;0.00;0.62;0.00;0.00;0.62;1.63;1.23;;;28.30;26.00;;;;;;2264302;61;20418;-52
2023/08/30 04:50:13;0.00;0.00;0.62;0.00;0.00;0.62;1.90;1.40;;;28.30;26.00;;;;;;2264250;61;20858;-49
2023/08/30 04:52:58;0.00;0.00;0.62;0.00;0.00;0.62;1.73;1.50;;;28.30;26.00;;;;;;2264899;61;20767;-48
2023/08/30 04:55:43;0.00;0.00;0.62;0.00;0.00;0.62;2.30;1.30;;;28.20;25.90;;;;;;2264249;61;20380;-50
2023/08/30 04:58:27;0.00;0.00;0.62;0.00;0.00;0.62;2.47;1.53;;;28.20;25.90;;;;;;2264837;61;20418;-50
2023/08/30 05:01:13;0.00;0.00;0.62;0.00;0.00;0.62;1.80;1.17;;;28.20;25.90;;;;;;2264189;61;20363;-60
2023/08/30 05:04:00;0.00;0.00;0.62;0.00;0.00;0.62;2.53;1.40;;;28.20;25.90;;;;;;2264234;61;20400;-52
2023/08/30 05:06:46;0.00;0.00;0.62;0.00;0.00;0.62;2.33;1.43;;;28.20;25.90;;;;;;2264808;61;20404;-56
2023/08/30 05:09:30;0.00;0.00;0.62;0.00;0.00;0.62;1.93;1.33;;;28.20;25.90;;;;;;2264960;61;20356;-56
2023/08/30 05:12:15;0.00;0.00;0.62;0.00;0.00;0.62;2.20;1.50;;;28.20;26.00;;;;;;2264651;61;20889;-57
2023/08/30 05:15:00;0.00;0.00;0.62;0.00;0.00;0.62;1.80;1.50;;;28.20;26.00;;;;;;2264262;61;20943;-53
2023/08/30 05:17:46;0.00;0.00;0.62;0.00;0.00;0.62;2.67;1.70;;;28.20;26.00;;;;;;2264414;61;20475;-51
2023/08/30 05:20:32;0.00;0.00;0.62;0.00;0.00;0.62;2.77;1.80;;;28.20;26.10;;;;;;2264288;61;20771;-55
2023/08/30 05:23:16;0.00;0.00;0.62;0.00;0.00;0.62;2.23;1.70;;;28.20;26.00;;;;;;2264234;61;20369;-52
2023/08/30 05:26:01;0.00;0.00;0.62;0.00;0.00;0.62;2.10;1.70;;;28.20;26.00;;;;;;2264935;61;20388;-55
2023/08/30 05:28:45;0.00;0.00;0.62;0.00;0.00;0.62;2.17;1.50;;;28.20;26.00;;;;;;2264405;61;20371;-55
2023/08/30 05:31:30;0.00;0.00;0.62;0.00;0.00;0.62;2.43;1.80;;;28.20;26.00;;;;;;2264315;61;20356;-55
2023/08/30 05:34:40;0.00;0.00;0.62;0.00;0.00;0.62;2.47;2.00;;;28.20;26.00;;;;;;2263956;61;20803;-56
2023/08/30 05:37:38;0.00;0.00;0.62;0.00;0.00;0.62;2.17;1.40;;;28.20;26.00;;;;;;2264174;61;20410;-56
2023/08/30 05:40:55;0.00;0.00;0.62;0.00;0.00;0.62;2.87;1.90;;;28.20;26.00;;;;;;2263657;61;20372;-58
2023/08/30 05:43:40;0.00;0.00;0.62;0.00;0.00;0.62;1.90;1.63;;;28.20;26.10;;;;;;2264287;61;20971;-49
2023/08/30 05:46:25;0.00;0.00;0.62;0.00;0.00;0.62;2.13;1.60;;;28.20;26.00;;;;;;2264291;61;20490;-58
2023/08/30 05:49:10;0.00;0.00;0.62;0.00;0.00;0.62;2.53;1.50;;;28.20;26.00;;;;;;2261789;61;20364;-51
2023/08/30 05:51:55;0.00;0.00;0.62;0.00;0.00;0.62;2.30;1.40;;;28.20;26.00;;;;;;2264491;61;20822;-56
2023/08/30 05:54:42;0.00;0.00;0.62;0.00;0.00;0.62;2.57;1.60;;;28.20;26.10;;;;;;2261068;61;20376;-60
2023/08/30 05:57:28;0.00;0.00;0.62;0.00;0.00;0.62;2.50;1.73;;;28.10;26.00;;;;;;2264493;61;20372;-59
2023/08/30 06:00:14;0.00;0.00;0.62;0.00;0.00;0.62;2.70;1.47;;;28.10;26.00;;;;;;2264251;61;20365;-54
2023/08/30 06:02:59;0.00;0.00;0.62;0.00;0.00;0.62;2.00;1.70;;;28.10;26.00;;;;;;2264826;61;20518;-54
2023/08/30 06:05:43;0.00;0.00;0.62;0.00;0.00;0.62;2.17;1.80;;;28.10;26.00;;;;;;2264980;61;20391;-53
2023/08/30 06:08:28;0.00;0.00;0.62;0.00;0.00;0.62;2.00;1.50;;;28.10;26.00;;;;;;2264715;61;20441;-55
2023/08/30 06:11:15;0.00;0.00;0.62;0.00;0.00;0.62;3.40;1.40;;;28.10;26.00;;;;;;2264669;61;20383;-55
2023/08/30 06:13:59;0.00;0.00;0.62;0.00;0.00;0.62;2.43;1.70;;;28.10;26.00;;;;;;2264364;61;20396;-52
2023/08/30 06:16:44;0.00;0.00;0.62;0.00;0.00;0.62;2.17;1.40;;;28.10;26.00;;;;;;2264764;61;20801;-53
2023/08/30 06:19:28;0.00;0.00;0.62;0.00;0.00;0.62;2.00;1.40;;;28.10;26.00;;;;;;2264374;61;20395;-50
2023/08/30 06:22:13;0.00;0.00;0.62;0.00;0.00;0.62;2.30;1.50;;;28.10;26.00;;;;;;2264018;61;20345;-51
2023/08/30 06:24:58;0.00;0.00;0.62;0.00;0.00;0.62;2.10;1.70;;;28.10;26.00;;;;;;2263734;61;20387;-51
2023/08/30 06:27:57;0.00;0.00;0.62;0.00;0.00;0.62;3.13;1.77;;;28.10;26.00;;;;;;2264192;61;20360;-50
2023/08/30 06:30:41;0.00;0.00;0.62;0.00;0.00;0.62;3.10;1.87;;;28.10;26.00;;;;;;2264100;61;20759;-60
2023/08/30 06:33:26;0.00;0.00;0.62;0.00;0.00;0.62;2.00;1.20;;;28.10;26.10;;;;;;2263775;61;20665;-56
2023/08/30 06:36:15;0.00;0.00;0.62;0.00;0.00;0.62;2.30;1.70;;;28.10;26.10;;;;;;2264517;61;20368;-48
2023/08/30 06:39:00;0.00;0.00;0.62;0.00;0.00;0.62;2.20;1.80;;;28.10;26.10;;;;;;2264866;61;20400;-54
2023/08/30 06:41:45;0.00;0.00;0.62;0.00;0.00;0.62;2.53;1.57;;;28.10;26.10;;;;;;2265658;61;20449;-57
2023/08/30 06:44:33;0.00;0.00;0.62;0.00;0.00;0.62;2.33;1.73;;;28.10;26.10;;;;;;2264453;61;20412;-53
2023/08/30 06:47:18;0.00;0.00;0.62;0.00;0.00;0.62;2.80;1.63;;;28.10;26.10;;;;;;2265675;61;20876;-56
2023/08/30 06:50:03;0.00;0.00;0.62;0.00;0.00;0.62;2.03;1.40;;;28.10;26.10;;;;;;2265399;61;20763;-53
2023/08/30 06:52:48;0.00;0.00;0.62;0.00;0.00;0.62;2.43;1.40;;;28.10;26.10;;;;;;2265306;61;20421;-55
2023/08/30 06:55:35;0.00;0.00;0.62;0.00;0.00;0.62;2.30;1.57;;;28.10;26.10;;;;;;2265116;61;20422;-51
2023/08/30 06:58:20;0.00;0.00;0.62;0.00;0.00;0.62;2.30;1.83;;;28.10;26.10;;;;;;2265585;61;20360;-56
2023/08/30 07:01:06;0.00;0.00;0.62;0.00;0.00;0.62;2.07;1.67;;;28.10;26.10;;;;;;2264677;61;20498;-51
2023/08/30 07:03:51;0.00;0.00;0.62;0.00;0.00;0.62;2.20;1.87;;;28.10;26.20;;;;;;2264852;61;20415;-52
2023/08/30 07:06:35;0.00;0.00;0.62;0.00;0.00;0.62;2.97;1.53;;;28.10;26.20;;;;;;2265390;61;20403;-54
2023/08/30 07:09:20;0.00;0.00;0.62;0.00;0.00;0.62;2.67;1.33;;;28.10;26.20;;;;;;2265507;61;20786;-56
2023/08/30 07:12:05;0.00;0.00;0.62;0.00;0.00;0.62;2.10;1.23;;;28.10;26.20;;;;;;2265306;61;20766;-52
2023/08/30 07:14:50;0.00;0.00;0.62;0.00;0.00;0.62;2.33;1.97;;;28.10;26.20;;;;;;2265006;61;20778;-50
2023/08/30 07:17:36;0.00;0.00;0.62;0.00;0.00;0.62;3.20;1.40;;;28.10;26.20;;;;;;2265469;61;20409;-52
2023/08/30 07:20:20;0.00;0.00;0.62;0.00;0.00;0.62;2.67;1.87;;;28.10;26.20;;;;;;2265206;61;20367;-53
2023/08/30 07:23:05;0.00;0.00;0.62;0.00;0.00;0.62;4.60;1.73;;;28.10;26.20;;;;;;2265067;61;20360;-54
2023/08/30 07:25:51;0.00;0.00;0.62;0.00;0.00;0.62;3.70;1.87;;;28.10;26.20;;;;;;2265649;61;20406;-57
2023/08/30 07:28:36;0.00;0.00;0.62;0.00;0.00;0.62;1.70;1.30;;;28.00;26.20;;;;;;2265361;61;20425;-52
2023/08/30 07:31:21;0.00;0.00;0.62;0.00;0.00;0.62;2.63;1.63;;;28.10;26.20;;;;;;2265542;61;20941;-61
2023/08/30 07:34:07;0.00;0.00;0.62;0.00;0.00;0.62;2.40;1.60;;;28.00;26.20;;;;;;2265011;61;20449;-55
2023/08/30 07:36:55;0.00;0.00;0.62;0.00;0.00;0.62;2.00;1.53;;;28.00;26.30;;;;;;2502578;53;20360;-56
2023/08/30 07:39:40;0.00;0.00;0.62;0.00;0.00;0.62;2.03;1.80;;;28.00;26.20;;;;;;2265361;61;20418;-53
2023/08/30 07:42:24;0.00;0.00;0.62;0.00;0.00;0.62;1.80;1.20;;;28.00;26.30;;;;;;2265339;61;20778;-54
2023/08/30 07:45:10;0.00;0.00;0.62;0.00;0.00;0.62;2.00;1.43;;;28.00;26.30;;;;;;2264795;61;20395;-52
2023/08/30 07:47:55;0.00;0.00;0.62;0.00;0.00;0.62;2.47;1.50;;;28.00;26.30;;;;;;2265519;61;20372;-49
2023/08/30 07:50:40;0.00;0.00;0.62;0.00;0.00;0.62;2.00;1.40;;;28.00;26.30;;;;;;2265140;61;20360;-53
2023/08/30 07:53:25;0.00;0.00;0.62;0.00;0.00;0.62;2.30;1.70;;;28.00;26.30;;;;;;2264928;61;20502;-53
2023/08/30 07:56:10;0.00;0.00;0.62;0.00;0.00;0.62;2.53;1.33;;;28.00;26.30;;;;;;2264980;61;20954;-49
2023/08/30 07:58:54;0.00;0.00;0.62;0.00;0.00;0.62;3.50;1.40;;;28.00;26.30;;;;;;2265286;61;20472;-51
2023/08/30 08:01:39;0.00;0.00;0.62;0.00;0.00;0.62;2.20;1.70;;;28.00;26.30;;;;;;2265211;61;20406;-54
2023/08/30 08:04:24;0.00;0.00;0.62;0.00;0.00;0.62;3.23;2.07;;;28.00;26.40;;;;;;2265017;61;20484;-52
2023/08/30 08:07:09;0.00;0.00;0.62;0.00;0.00;0.62;2.60;1.70;;;28.00;26.40;;;;;;2265085;61;21254;-51
2023/08/30 08:09:55;0.00;0.00;0.62;0.00;0.00;0.62;3.93;2.00;;;28.00;26.40;;;;;;2265231;61;20368;-53
2023/08/30 08:12:39;0.00;0.00;0.62;0.00;0.00;0.62;2.77;1.63;;;28.00;26.40;;;;;;2265201;61;20360;-59
2023/08/30 08:15:24;0.00;0.00;0.62;0.00;0.00;0.62;2.30;1.77;;;28.00;26.40;;;;;;2264790;61;20384;-52
2023/08/30 08:18:08;0.00;0.00;0.62;0.00;0.00;0.62;2.87;2.00;;;28.00;26.40;;;;;;2265128;61;20403;-52
2023/08/30 08:20:53;0.00;0.00;0.62;0.00;0.00;0.62;2.13;1.80;;;28.00;26.40;;;;;;2265539;61;20394;-56
2023/08/30 08:23:39;0.00;0.00;0.62;0.00;0.00;0.62;1.90;1.60;;;28.00;26.40;;;;;;2265743;61;20364;-56
2023/08/30 08:26:25;0.00;0.00;0.62;0.00;0.00;0.62;3.90;3.50;;;28.10;26.50;;;;;;2266190;61;20914;-55
2023/08/30 08:29:10;0.00;0.00;0.62;0.00;0.00;0.62;5.33;4.83;;;28.10;26.70;;;;;;2266374;61;20969;-57
2023/08/30 08:31:54;0.00;0.00;0.62;0.00;0.00;0.62;6.27;5.67;;;28.00;26.70;;;;;;2266748;61;20384;-56
2023/08/30 08:34:39;0.00;0.00;0.62;0.00;0.00;0.62;6.50;5.50;;;28.00;26.80;;;;;;2266380;61;20827;-58
2023/08/30 08:37:24;0.00;0.00;0.62;0.00;0.00;0.62;7.23;6.53;;;28.00;26.90;;;;;;2266696;61;20949;-51
2023/08/30 08:40:10;0.00;0.00;0.62;0.00;0.00;0.62;9.57;6.50;;;28.00;26.90;;;;;;2267251;61;20364;-52
2023/08/30 08:42:56;0.00;0.00;0.62;0.00;0.00;0.62;7.00;5.73;;;28.00;27.00;;;;;;2266638;61;20890;-50
2023/08/30 08:45:41;0.00;0.00;0.62;0.00;0.00;0.62;8.90;7.50;;;27.90;27.10;;;;;;2266362;61;20396;-57
2023/08/30 08:48:28;0.00;0.00;0.62;0.00;0.00;0.62;7.57;5.47;;;27.80;27.20;;;;;;2266006;61;20364;-54
2023/08/30 08:51:13;0.00;0.00;0.62;0.00;0.00;0.62;7.50;6.03;;;27.70;27.50;;;;;;2264915;61;20368;-57
2023/08/30 08:54:03;0.00;0.00;0.62;0.00;0.00;0.62;8.53;6.57;;;27.70;27.70;;;;;;2264147;61;20832;-54
2023/08/30 08:56:50;0.00;0.00;0.62;0.00;0.00;0.62;7.83;5.90;;;27.70;28.00;;;;;;2264731;61;20880;-57
2023/08/30 08:59:34;0.00;0.00;0.62;0.00;0.00;0.62;6.10;4.93;;;27.60;28.20;;;;;;2264869;61;20372;-55
2023/08/30 09:02:19;0.00;0.00;0.62;0.00;0.00;0.62;8.70;7.80;;;27.50;28.20;;;;;;2265054;61;20427;-55
2023/08/30 09:05:05;0.00;0.00;0.62;0.00;0.00;0.62;7.33;6.43;;;27.40;28.30;;;;;;2266918;61;20826;-58
2023/08/30 09:07:53;0.00;0.00;0.62;0.00;0.00;0.62;5.37;4.87;;;27.40;28.40;;;;;;2267078;61;20368;-53
2023/08/30 09:10:39;0.00;0.00;0.62;0.00;0.00;0.62;5.97;4.80;;;27.30;28.50;;;;;;2265769;61;20363;-54
2023/08/30 09:13:26;0.00;0.00;0.62;0.00;0.00;0.62;6.63;3.47;;;27.30;28.50;;;;;;2265120;61;20364;-57
2023/08/30 09:16:13;0.00;0.00;0.62;0.00;0.00;0.62;6.43;5.50;;;27.20;28.60;;;;;;2266671;61;20368;-54
2023/08/30 09:18:59;0.00;0.00;0.62;0.00;0.00;0.62;7.77;6.50;;;27.20;28.70;;;;;;2267331;61;20369;-54
2023/08/30 09:21:51;0.00;0.00;0.62;0.00;0.00;0.62;9.10;7.77;;;27.20;28.80;;;;;;2266731;61;20392;-56
2023/08/30 09:24:40;0.00;0.00;0.62;0.00;0.00;0.62;9.63;8.17;;;27.20;28.70;;;;;;2266723;61;20609;-51
2023/08/30 09:27:33;0.00;0.00;0.62;0.00;0.00;0.62;8.20;6.87;;;27.10;28.60;;;;;;2525267;53;20798;-49
2023/08/30 09:30:23;0.00;0.00;0.62;0.00;0.00;0.62;8.70;7.90;;;27.10;28.60;;;;;;2266928;61;20361;-53
2023/08/30 09:33:08;0.00;0.00;0.62;0.00;0.00;0.62;6.70;6.10;;;27.10;28.60;;;;;;2267085;61;20429;-55
2023/08/30 09:35:53;0.00;0.00;0.62;0.00;0.00;0.62;8.00;7.20;;;27.10;28.50;;;;;;2267755;61;20388;-54
2023/08/30 09:38:37;0.00;0.00;0.62;0.00;0.00;0.62;10.17;8.40;;;27.10;28.50;;;;;;2267651;61;20384;-52
2023/08/30 09:41:22;0.00;0.00;0.62;0.00;0.00;0.62;8.77;7.40;;;27.00;28.50;;;;;;2267420;61;20364;-51
2023/08/30 09:44:09;0.00;0.00;0.62;0.00;0.00;0.62;10.73;7.80;;;27.10;28.60;;;;;;2267130;61;20869;-56
2023/08/30 09:46:56;0.00;0.00;0.62;0.00;0.00;0.62;6.77;6.10;;;27.00;28.50;;;;;;2267116;61;20445;-54
2023/08/30 09:49:47;0.00;0.00;0.62;0.00;0.00;0.62;8.17;7.40;;;27.00;29.00;;;;;;2267313;61;20376;-49
2023/08/30 09:52:33;0.00;0.00;0.62;0.00;0.00;0.62;8.13;5.60;;;27.00;28.50;;;;;;2266988;61;20844;-54
2023/08/30 09:55:18;0.00;0.00;0.62;0.00;0.00;0.62;7.13;6.40;;;27.00;28.60;;;;;;2266628;61;20422;-50
2023/08/30 09:58:06;0.00;0.00;0.62;0.00;0.00;0.62;8.53;6.77;;;27.00;28.70;;;;;;2266643;61;20527;-55
2023/08/30 10:00:51;0.00;0.00;0.62;0.00;0.00;0.62;10.67;7.83;;;27.00;28.70;;;;;;2267053;61;20375;-51
2023/08/30 10:03:37;0.00;0.00;0.62;0.00;0.00;0.62;7.80;7.00;;;27.00;28.70;;;;;;2266565;61;20359;-57
2023/08/30 10:06:23;0.00;0.00;0.62;0.00;0.00;0.62;6.83;6.13;;;27.00;28.80;;;;;;2266660;61;20495;-51
2023/08/30 10:09:09;0.00;0.00;0.62;0.00;0.00;0.62;7.63;6.77;;;27.00;28.80;;;;;;2266816;61;20901;-57
2023/08/30 10:11:54;0.00;0.00;0.62;0.00;0.00;0.62;8.50;7.57;;;26.90;28.70;;;;;;2266708;61;20368;-55
2023/08/30 10:14:39;0.00;0.00;0.62;0.00;0.00;0.62;8.40;7.60;;;26.90;28.70;;;;;;2266517;61;20915;-53
2023/08/30 10:17:27;0.00;0.00;0.62;0.00;0.00;0.62;13.03;8.80;;;26.90;28.70;;;;;;2267027;61;20399;-54
2023/08/30 10:20:13;0.00;0.00;0.62;0.00;0.00;0.62;8.57;7.70;;;26.90;28.70;;;;;;2266638;61;20364;-58
2023/08/30 10:23:00;0.00;0.00;0.62;0.00;0.00;0.62;8.87;7.60;;;26.80;28.70;;;;;;2267065;61;20372;-56
2023/08/30 10:25:46;0.00;0.00;0.62;0.00;0.00;0.62;7.17;6.47;;;26.80;28.80;;;;;;2266900;61;20940;-52
2023/08/30 10:28:32;0.00;0.00;0.62;0.00;0.00;0.62;12.33;7.57;;;26.80;28.80;;;;;;2267093;61;20495;-57
2023/08/30 10:31:17;0.00;0.00;0.62;0.00;0.00;0.62;9.20;7.20;;;26.70;28.80;;;;;;2267113;61;20436;-55
2023/08/30 10:34:01;0.00;0.00;0.62;0.00;0.00;0.62;8.30;7.50;;;26.70;28.70;;;;;;2266001;61;20396;-55
2023/08/30 10:37:02;0.00;0.00;0.62;0.00;0.00;0.62;7.30;6.60;;;26.70;28.60;;;;;;2266878;61;20379;-55
2023/08/30 10:39:49;0.00;0.00;0.62;0.00;0.00;0.62;8.43;7.53;;;26.70;28.60;;;;;;2264574;61;20365;-56
2023/08/30 10:42:34;0.00;0.00;0.62;0.00;0.00;0.62;7.47;6.53;;;26.60;28.50;;;;;;2263078;61;20365;-55
2023/08/30 10:45:24;0.00;0.00;0.62;0.00;0.00;0.62;5.73;5.20;;;26.60;28.50;;;;;;2262559;61;20388;-62
2023/08/30 10:48:09;0.00;0.00;0.62;0.00;0.00;0.62;6.83;5.80;;;26.60;28.60;;;;;;2262756;61;20373;-53
2023/08/30 10:50:53;0.00;0.00;0.62;0.00;0.00;0.62;7.80;6.20;;;26.50;28.50;;;;;;2262905;61;20384;-55
2023/08/30 10:53:39;0.00;0.00;0.62;0.00;0.00;0.62;7.00;6.30;;;26.50;28.60;;;;;;2262488;61;20369;-57
2023/08/30 10:56:29;0.00;0.00;0.62;0.00;0.00;0.62;6.50;5.83;;;26.50;28.60;;;;;;2262778;61;20357;-54